Relevés horaires Florennes (Belgique)


Relevés horaires à Florennes - Mercredi 03 Mars 2021
Heure UTC1 Température [°C] Vent [km/h] Hum. [%] Pres.4 [hPa] Visi. [Km] Nébu. [octa] Préc.5 [mm] Cond.
2m. Res. Ros. Dir.2 Vit. Moy. Raf.3
23:00 9.8 9.8 4.8 NNO 1.9 -- 3.7 71 1024.5(-1.3/3h) 10 -- -- --
22:00 9.8 9.8 5.6 NNO 1.9 -- 1.9 75 1025(-1.2/3h) 8 -- -- --
21:00 10.1 10.1 5.7 NNO 1.9 -- 5.6 74 1025.5(-0.8/3h) 9 -- -- NA
20:00 10.6 10.6 6.5 NNO 1.9 -- 5.6 76 1025.7(-0.3/3h) 10 -- -- NA
19:00 11.6 11.6 4.5 NNO 1.9 -- 3.7 62 1026(-0.3/3h) 11 -- -- Il y a de la pluie faible et continue à la station au moment de l'observation
18:00 12.6 12.6 3.9 NNO 1.9 -- 7.4 55 1026(-0.5/3h) 13 -- trace/12h
NA
17:00 12.9 12.9 4.8 ONO 3.7 -- 5.6 58 1026(-0.9/3h) 15 -- -- NA
16:00 14.3 14.3 4.9 ONO 3.7 -- 5.6 53 1026(-1.2/3h) 12 5/8 -- --
15:00 14.9 14.9 3.9 ONO 3.7 -- 7.4 48 1026.2(-1.5/3h) 12 5/8 -- --
14:00 15.3 15.3 3.1 ONO 3.7 -- 7.4 44 1026.7(-1.6/3h) 12 5/8 -- --
13:00 14.8 14.8 2.9 NNO 3.7 -- 5.6 45 1027.2(-1.2/3h) 12 5/8 -- --
12:00 14.8 14.8 3.9 NNO 1.9 -- 3.7 48 1028(-0.5/3h) 12 5/8 -- --
11:00 13.1 13.1 4.3 NNO 1.9 -- 1.9 55 1028.7(-0.2/3h) 12 5/8 -- --
10:00 12.9 12.9 2.6 NNO 1.9 -- 3.7 49 1028.7(0.1/3h) 12 5/8 -- --
09:00 10.0 10.0 2.8 SSE 3.7 -- 3.7 61 1029.2(0.2/3h) 12 1/8 -- --
08:00 6.5 6.5 3.1 NNO 1.9 -- 1.9 79 1029.7(0.1/3h) 12 1/8 -- --
07:00 5.8 5.8 1.6 NNO 1.9 -- 1.9 74 1029.5(0.0/3h) 12 1/8 -- --
06:00 5.4 5.4 1.5 NNO 1.9 -- 5.6 76 1029.5(0.1/3h) 12 -- -- --
05:00 6.1 6.1 1.7 NNO 0.0 -- 3.7 73 1029.5(-0.2/3h) 15 -- -- --
04:00 6.6 6.6 1.6 NNO 1.9 -- 5.6 70 1029.4(-0.6/3h) 13 -- -- --
03:00 8.3 8.3 2.3 NNO 1.9 -- 3.7 66 1029(-0.4/3h) 13 -- -- --
02:00 5.8 5.8 2.7 NNO 1.9 -- 1.9 80 1029.7(-0.2/3h) 12 -- -- --
01:00 5.0 5.0 1.6 NNO 1.9 -- 3.7 79 1030.2(-0.1/3h) 13 -- -- --
00:00 6.9 6.9 1.7 NNO 1.9 -- 5.6 69 1029.9(-0.2/3h) 14 -- -- --

1 Coordinated Universal Time. Actuellement il est 14:00 locale et 12:00 UTC.

2 Le vent souffle depuis la direction indiquée vers la direction oposée.

3 Les rafales max. sont disponible 40 min après l'heure du relevé.

4 Pour les stations d'altitude (plus de 600m) le géopotentiel du niveau le plus proche de la pression obligatoire est indiqué.

5 Les stations disposant d'un diffuseur peuvent indiquer "trace". Cela signifie que des précipitations ont touchés le sol mais que la quantité est inférieure à 0.1 mm.

Récapitulatif de la journée
Température [°C] Vent [km/h] Ensoleillement4 [h] Precipitations totale5 [mm] Pression [Hpa]
Min1 Max.2 Moy.3 Max. Min Max.
4.6 15.8 0 7.4 0 h 0 min 0 1024.5 1030.2

1 Température minimale relevée entre 18:00 UTC la veille et 18:00 UTC le jour donné.

2 Température maximale relevée entre 06:00 UTC le jour donné et 06:00 UTC le lendemain.

3 Vent moyen de la journée basé sur les relevés horaires.

4 Ensoleillement en heures relevé entre 06:00 UTC la veille et 06:00 UTC le jour donné.

5 Précipitations totales tombées entre 06:00 UTC la jour donné et 06:00 UTC le lendemain.

Graphiques horaires